Time;durP1;ratioP1;P1;durP2;ratioP2;P2;SDS_P1;SDS_P2;PMS_P1;PMS_P2;Temp;Humidity;BMP_temperature;BMP_pressure;BME280_temperature;BME280_humidity;BME280_pressure;Samples;Min_cycle;Max_cycle;Signal;HPM_P1;HPM_P2
2024/03/08 00:01:53;;;;;;;32.97;19.45;;;;;;;6.39;100.00;100244.69;5085834;28;20067;-78
2024/03/08 00:04:18;;;;;;;28.05;17.70;;;;;;;6.26;100.00;100255.16;5086092;28;20055;-76
2024/03/08 00:06:45;;;;;;;29.85;17.83;;;;;;;6.28;100.00;100216.06;5086072;28;20355;-75
2024/03/08 00:09:11;;;;;;;28.07;16.80;;;;;;;6.13;100.00;100221.41;5086610;28;20902;-77
2024/03/08 00:11:37;;;;;;;30.58;17.40;;;;;;;6.24;100.00;100249.22;5085843;28;20051;-77
2024/03/08 00:14:02;;;;;;;27.98;16.40;;;;;;;5.98;100.00;100200.22;5067865;28;20123;-76
2024/03/08 00:16:28;;;;;;;30.23;16.98;;;;;;;6.36;100.00;100247.72;5085740;28;20024;-76
2024/03/08 00:18:54;;;;;;;28.05;17.52;;;;;;;6.17;100.00;100216.53;5086183;28;20036;-77
2024/03/08 00:21:19;;;;;;;26.80;15.93;;;;;;;6.15;100.00;100237.06;5085839;28;20592;-77
2024/03/08 00:23:44;;;;;;;28.45;16.33;;;;;;;6.31;100.00;100226.25;5086082;28;20035;-78
2024/03/08 00:26:10;;;;;;;31.90;17.50;;;;;;;6.19;100.00;100218.00;5085778;28;20020;-76
2024/03/08 00:28:36;;;;;;;30.77;17.42;;;;;;;6.41;100.00;100220.69;5086391;28;20044;-77
2024/03/08 00:31:01;;;;;;;33.20;18.52;;;;;;;6.34;100.00;100236.50;5067941;28;20500;-77
2024/03/08 00:33:27;;;;;;;30.98;18.23;;;;;;;6.54;100.00;100222.63;5085590;28;20032;-76
2024/03/08 00:35:53;;;;;;;35.33;19.27;;;;;;;6.55;100.00;100259.53;5067838;28;20504;-77
2024/03/08 00:38:19;;;;;;;31.55;17.70;;;;;;;6.48;100.00;100244.56;5082066;28;20089;-76
2024/03/08 00:40:45;;;;;;;27.80;16.48;;;;;;;6.43;100.00;100256.56;5071778;28;20019;-76
2024/03/08 00:43:10;;;;;;;26.17;15.82;;;;;;;6.30;100.00;100253.78;5085526;28;20073;-79
2024/03/08 00:45:36;;;;;;;31.73;17.55;;;;;;;6.47;100.00;100248.25;5067684;28;20411;-77
2024/03/08 00:48:03;;;;;;;28.83;16.98;;;;;;;6.22;100.00;100236.16;5086310;28;20077;-77
2024/03/08 00:50:28;;;;;;;27.00;16.80;;;;;;;6.42;100.00;100246.97;5085781;28;20032;-78
2024/03/08 00:52:54;;;;;;;26.13;16.45;;;;;;;6.40;100.00;100241.06;5070825;28;20101;-77
2024/03/08 00:55:19;;;;;;;29.40;17.63;;;;;;;6.18;100.00;100232.25;5089326;28;20031;-78
2024/03/08 00:57:45;;;;;;;32.70;18.35;;;;;;;6.35;100.00;100254.03;5089706;28;20713;-77
2024/03/08 01:00:11;;;;;;;29.23;16.83;;;;;;;6.08;100.00;100233.53;5088950;28;21380;-77
2024/03/08 01:02:40;;;;;;;34.33;18.50;;;;;;;6.15;100.00;100245.03;5089152;28;20050;-77
2024/03/08 01:05:07;;;;;;;33.45;17.25;;;;;;;6.20;100.00;100240.81;5089350;28;20028;-76
2024/03/08 01:07:34;;;;;;;30.40;17.33;;;;;;;6.22;100.00;100253.88;5071019;28;20036;-76
2024/03/08 01:10:00;;;;;;;31.92;17.20;;;;;;;6.16;100.00;100239.56;5088975;28;20028;-77
2024/03/08 01:12:26;;;;;;;28.75;17.58;;;;;;;6.47;100.00;100249.06;5088121;28;20074;-77
2024/03/08 01:14:51;;;;;;;28.27;17.45;;;;;;;6.43;100.00;100239.84;5070252;28;20059;-77
2024/03/08 01:17:17;;;;;;;29.50;17.27;;;;;;;6.31;100.00;100241.34;5084490;28;20038;-76
2024/03/08 01:19:44;;;;;;;33.63;16.90;;;;;;;6.37;100.00;100249.34;5081238;28;20032;-77
2024/03/08 01:22:10;;;;;;;28.88;16.48;;;;;;;6.33;100.00;100250.75;5084984;28;20043;-76
2024/03/08 01:24:35;;;;;;;30.58;16.67;;;;;;;6.34;100.00;100249.75;5070520;28;20036;-77
2024/03/08 01:27:02;;;;;;;34.55;18.17;;;;;;;6.39;100.00;100260.59;5089557;28;20035;-77
2024/03/08 01:29:29;;;;;;;41.72;20.70;;;;;;;6.29;100.00;100248.66;5088925;28;20453;-76
2024/03/08 01:31:55;;;;;;;29.75;17.17;;;;;;;6.32;100.00;100254.41;5070294;28;20484;-76
2024/03/08 01:34:20;;;;;;;28.42;17.40;;;;;;;6.35;100.00;100232.81;5070747;28;20035;-76
2024/03/08 01:36:46;;;;;;;27.40;16.50;;;;;;;6.40;100.00;100251.66;5070320;28;20103;-77
2024/03/08 01:39:11;;;;;;;28.98;16.73;;;;;;;6.36;100.00;100245.09;5084290;28;20037;-77
2024/03/08 01:41:37;;;;;;;27.50;15.48;;;;;;;5.96;100.00;100234.00;5077507;28;20028;-76
2024/03/08 01:44:03;;;;;;;30.95;17.17;;;;;;;6.12;100.00;100263.94;5070309;28;20514;-76
2024/03/08 01:46:29;;;;;;;28.10;16.85;;;;;;;6.13;100.00;100245.22;5088410;28;20034;-77
2024/03/08 01:48:55;;;;;;;27.83;16.00;;;;;;;6.28;100.00;100258.44;5087771;28;20114;-78
2024/03/08 01:51:20;;;;;;;31.65;16.85;;;;;;;6.36;100.00;100260.97;5088277;28;20119;-77
2024/03/08 01:53:47;;;;;;;37.13;18.30;;;;;;;6.06;100.00;100235.56;5088247;28;20108;-76
2024/03/08 01:56:13;;;;;;;28.70;16.63;;;;;;;6.10;100.00;100244.78;5088218;28;20024;-76
2024/03/08 01:58:43;;;;;;;32.33;17.92;;;;;;;6.26;100.00;100244.56;5070212;28;20032;-77
2024/03/08 02:01:10;;;;;;;33.03;18.42;;;;;;;6.32;100.00;100243.81;5088318;28;20054;-76
2024/03/08 02:03:36;;;;;;;37.00;19.05;;;;;;;6.26;100.00;100262.28;5087542;28;20518;-77
2024/03/08 02:06:01;;;;;;;35.60;18.73;;;;;;;6.22;100.00;100243.28;5088183;28;20054;-78
2024/03/08 02:08:27;;;;;;;39.42;19.60;;;;;;;6.24;100.00;100252.69;5088487;28;20114;-76
2024/03/08 02:10:52;;;;;;;39.35;20.17;;;;;;;6.17;100.00;100240.38;5069553;28;20116;-77
2024/03/08 02:13:18;;;;;;;38.22;19.55;;;;;;;6.03;100.00;100250.81;5087412;28;20068;-77
2024/03/08 02:16:01;;;;;;;38.22;21.65;;;;;;;5.99;100.00;100244.25;5087953;28;20052;-77
2024/03/08 02:18:28;;;;;;;37.30;20.08;;;;;;;5.96;100.00;100255.19;5067915;28;20494;-78
2024/03/08 02:21:00;;;;;;;37.85;19.08;;;;;;;5.75;100.00;100239.22;5076819;28;20024;-76
2024/03/08 02:23:26;;;;;;;38.28;21.77;;;;;;;5.96;100.00;100254.38;5087638;28;20039;-76
2024/03/08 02:25:53;;;;;;;36.30;20.40;;;;;;;5.75;100.00;100257.72;5087652;28;20302;-76
2024/03/08 02:28:19;;;;;;;35.80;19.48;;;;;;;5.89;100.00;100264.84;5069281;28;20049;-77
2024/03/08 02:30:48;;;;;;;36.17;20.38;;;;;;;5.97;100.00;100262.13;5087458;28;20031;-76
2024/03/08 02:33:18;;;;;;;37.90;21.17;;;;;;;5.96;100.00;100244.59;5090666;28;20134;-77
2024/03/08 02:35:47;;;;;;;33.95;18.90;;;;;;;5.84;100.00;100265.41;5087302;28;20111;-77
2024/03/08 02:38:16;;;;;;;38.42;20.83;;;;;;;5.78;100.00;100246.75;5087566;28;20035;-76
2024/03/08 02:40:42;;;;;;;39.33;21.95;;;;;;;5.86;100.00;100240.56;5087189;28;20028;-77
2024/03/08 02:43:08;;;;;;;38.53;20.15;;;;;;;5.87;100.00;100256.28;5066001;28;20043;-76
2024/03/08 02:45:34;;;;;;;43.10;21.00;;;;;;;5.82;100.00;100250.69;5069117;28;20024;-77
2024/03/08 02:48:00;;;;;;;37.72;20.85;;;;;;;5.74;100.00;100250.78;5069229;28;20400;-76
2024/03/08 02:50:26;;;;;;;37.30;19.73;;;;;;;5.80;100.00;100268.56;5087669;28;20063;-76
2024/03/08 02:52:51;;;;;;;42.72;21.25;;;;;;;5.77;100.00;100267.13;5087150;28;20553;-76
2024/03/08 02:55:16;;;;;;;36.53;21.00;;;;;;;5.90;100.00;100260.38;5069141;28;20096;-76
2024/03/08 02:57:43;;;;;;;36.67;21.38;;;;;;;5.71;100.00;100251.16;5087137;28;20350;-77
2024/03/08 03:00:09;;;;;;;38.72;21.15;;;;;;;5.75;100.00;100258.53;5087572;28;20016;-76
2024/03/08 03:02:35;;;;;;;37.25;19.95;;;;;;;5.83;100.00;100262.94;5085339;28;20115;-76
2024/03/08 03:05:05;;;;;;;44.13;21.17;;;;;;;5.72;100.00;100253.63;5068480;28;20020;-76
2024/03/08 03:07:31;;;;;;;37.15;19.27;;;;;;;5.68;100.00;100243.56;5086844;28;20586;-76
2024/03/08 03:09:56;;;;;;;35.83;19.63;;;;;;;5.23;100.00;100217.94;5069194;28;20107;-77
2024/03/08 03:12:22;;;;;;;37.25;20.55;;;;;;;5.44;100.00;100261.34;5061602;28;20074;-76
2024/03/08 03:14:48;;;;;;;33.22;19.52;;;;;;;5.49;100.00;100251.03;5085937;28;20408;-77
2024/03/08 03:17:13;;;;;;;39.25;20.23;;;;;;;5.44;100.00;100267.47;5068371;28;20039;-77
2024/03/08 03:19:42;;;;;;;36.75;20.13;;;;;;;5.53;100.00;100257.63;5084022;28;20032;-77
2024/03/08 03:22:09;;;;;;;36.17;18.98;;;;;;;5.32;100.00;100237.16;5063011;28;20082;-78
2024/03/08 03:24:38;;;;;;;38.20;20.83;;;;;;;5.81;100.00;100263.09;5086267;28;20027;-77
2024/03/08 03:27:10;;;;;;;37.40;20.83;;;;;;;5.64;100.00;100254.53;5086667;28;20035;-77
2024/03/08 03:29:36;;;;;;;37.78;21.20;;;;;;;5.57;100.00;100258.91;5086829;28;20036;-77
2024/03/08 03:32:03;;;;;;;39.25;20.63;;;;;;;5.36;100.00;100259.59;5090687;28;20420;-77
2024/03/08 03:34:29;;;;;;;36.90;20.83;;;;;;;5.36;100.00;100272.00;5087228;28;20489;-77
2024/03/08 03:36:55;;;;;;;37.28;22.20;;;;;;;5.61;100.00;100283.97;5083915;28;20069;-78
2024/03/08 03:39:22;;;;;;;41.30;21.85;;;;;;;5.50;100.00;100265.13;5086525;28;20491;-78
2024/03/08 03:41:51;;;;;;;38.72;20.60;;;;;;;5.17;100.00;100247.72;5086412;28;20081;-77
2024/03/08 03:44:17;;;;;;;37.13;20.42;;;;;;;5.41;100.00;100282.88;5085890;28;20070;-77
2024/03/08 03:46:46;;;;;;;41.03;20.88;;;;;;;5.45;100.00;100276.22;5086622;28;20506;-76
2024/03/08 03:49:12;;;;;;;44.45;22.55;;;;;;;5.39;100.00;100276.94;5073423;28;20067;-78
2024/03/08 03:51:38;;;;;;;40.30;20.00;;;;;;;5.33;100.00;100280.28;5073207;28;20059;-77
2024/03/08 03:54:03;;;;;;;39.72;19.95;;;;;;;5.18;100.00;100267.88;5081038;28;20481;-77
2024/03/08 03:56:30;;;;;;;36.35;20.13;;;;;;;5.32;100.00;100273.38;5086027;28;20016;-77
2024/03/08 03:58:56;;;;;;;42.85;21.98;;;;;;;5.46;100.00;100280.53;5068295;28;20039;-77
2024/03/08 04:01:21;;;;;;;34.85;18.60;;;;;;;5.33;100.00;100290.88;5068014;28;20434;-76
2024/03/08 04:03:47;;;;;;;40.28;19.20;;;;;;;5.32;100.00;100273.38;5085916;28;20024;-76
2024/03/08 04:06:12;;;;;;;40.05;23.50;;;;;;;5.45;100.00;100284.16;5086000;28;20028;-77
2024/03/08 04:08:38;;;;;;;42.28;23.08;;;;;;;5.32;100.00;100270.72;5086347;28;20028;-77
2024/03/08 04:11:03;;;;;;;40.80;22.13;;;;;;;5.45;100.00;100263.00;5086402;28;20032;-77
2024/03/08 04:13:29;;;;;;;37.28;20.67;;;;;;;5.61;100.00;100283.97;5067925;28;20028;-77
2024/03/08 04:15:54;;;;;;;44.00;22.52;;;;;;;5.71;100.00;100290.84;5068028;28;20064;-76
2024/03/08 04:18:20;;;;;;;42.55;23.52;;;;;;;5.51;100.00;100270.19;5085723;28;20482;-77
2024/03/08 04:20:45;;;;;;;38.53;21.77;;;;;;;5.56;100.00;100291.66;5077456;28;20685;-76
2024/03/08 04:23:11;;;;;;;38.17;22.00;;;;;;;5.64;100.00;100283.63;5060418;28;20063;-76
2024/03/08 04:25:36;;;;;;;43.13;22.83;;;;;;;5.47;100.00;100255.69;5069871;28;20032;-77
2024/03/08 04:28:01;;;;;;;46.00;24.38;;;;;;;5.66;100.00;100285.28;5089357;28;20050;-78
2024/03/08 04:30:28;;;;;;;42.05;21.60;;;;;;;5.62;100.00;100283.00;5071889;28;20442;-76
2024/03/08 04:32:54;;;;;;;40.75;22.58;;;;;;;5.67;100.00;100284.28;5071431;28;20039;-77
2024/03/08 04:35:20;;;;;;;41.85;23.10;;;;;;;5.66;100.00;100295.84;5071634;28;20032;-77
2024/03/08 04:37:46;;;;;;;40.95;20.85;;;;;;;5.51;100.00;100288.72;5089784;28;20057;-77
2024/03/08 04:40:11;;;;;;;40.35;21.75;;;;;;;5.44;100.00;100290.47;5089800;28;20077;-77
2024/03/08 04:42:38;;;;;;;36.45;21.25;;;;;;;5.52;100.00;100295.66;5089785;28;20027;-76
2024/03/08 04:45:05;;;;;;;46.57;23.87;;;;;;;5.69;100.00;100291.03;5089394;28;20779;-77
2024/03/08 04:47:30;;;;;;;51.42;29.38;;;;;;;5.61;100.00;100294.56;5089576;28;20099;-77
2024/03/08 04:49:56;;;;;;;40.80;22.50;;;;;;;5.31;100.00;100277.00;5089775;28;20111;-77
2024/03/08 04:52:22;;;;;;;44.67;23.25;;;;;;;5.40;100.00;100302.41;5089996;28;20755;-77
2024/03/08 04:54:48;;;;;;;45.35;24.23;;;;;;;5.26;100.00;100300.53;5089097;28;20032;-77
2024/03/08 04:57:13;;;;;;;40.58;21.67;;;;;;;5.02;100.00;100270.63;5089401;28;20039;-77
2024/03/08 04:59:39;;;;;;;39.40;22.75;;;;;;;5.14;100.00;100282.44;5089152;28;20429;-77
2024/03/08 05:02:05;;;;;;;42.08;23.40;;;;;;;5.32;100.00;100289.25;5082824;28;20074;-76
2024/03/08 05:04:30;;;;;;;46.28;24.13;;;;;;;5.33;100.00;100280.28;5089203;28;20077;-77
2024/03/08 05:06:56;;;;;;;39.58;20.98;;;;;;;5.44;100.00;100306.31;5088989;28;20473;-76
2024/03/08 05:09:21;;;;;;;45.17;23.70;;;;;;;5.33;100.00;100312.03;5070936;28;20028;-77
2024/03/08 05:11:47;;;;;;;42.15;23.50;;;;;;;5.45;100.00;100307.94;5062757;28;20130;-77
2024/03/08 05:14:16;;;;;;;42.83;24.95;;;;;;;5.69;100.00;100322.78;5089015;28;20097;-77
2024/03/08 05:16:43;;;;;;;40.58;22.42;;;;;;;5.47;100.00;100311.25;5084875;28;20040;-77
2024/03/08 05:19:08;;;;;;;44.10;23.85;;;;;;;5.54;100.00;100312.19;5067154;28;20474;-76
2024/03/08 05:21:34;;;;;;;42.03;23.92;;;;;;;5.55;100.00;100305.88;5051186;28;20536;-77
2024/03/08 05:23:59;;;;;;;37.88;21.35;;;;;;;5.56;100.00;100314.66;5084648;28;20568;-77
2024/03/08 05:26:24;;;;;;;42.97;23.40;;;;;;;5.68;100.00;100330.88;5089082;28;20035;-77
2024/03/08 05:28:50;;;;;;;42.20;24.00;;;;;;;5.64;100.00;100325.97;5088225;28;20057;-77
2024/03/08 05:31:22;;;;;;;52.33;29.95;;;;;;;5.72;100.00;100329.53;5088882;28;20764;-77
2024/03/08 05:33:48;;;;;;;50.08;30.02;;;;;;;5.76;100.00;100336.09;5069159;28;20404;-77
2024/03/08 05:36:15;;;;;;;44.88;26.33;;;;;;;5.50;100.00;100315.38;5087036;28;20036;-77
2024/03/08 05:38:42;;;;;;;42.53;22.45;;;;;;;5.44;100.00;100323.00;5087626;28;20082;-77
2024/03/08 05:41:07;;;;;;;42.35;23.13;;;;;;;5.72;100.00;100321.59;5088170;28;20483;-76
2024/03/08 05:43:33;;;;;;;42.33;25.50;;;;;;;5.99;100.00;100336.91;5087855;28;20028;-77
2024/03/08 05:45:58;;;;;;;41.55;24.73;;;;;;;6.11;100.00;100342.56;5069002;28;20667;-76
2024/03/08 05:48:25;;;;;;;41.85;24.25;;;;;;;5.92;100.00;100351.81;5088466;28;20036;-77
2024/03/08 05:50:50;;;;;;;39.38;22.90;;;;;;;5.96;100.00;100341.72;5088590;28;20040;-77
2024/03/08 05:53:16;;;;;;;41.50;21.45;;;;;;;6.22;100.00;100346.56;5083634;28;20032;-76
2024/03/08 05:55:41;;;;;;;36.47;22.40;;;;;;;6.20;100.00;100361.81;5088019;28;20028;-76
2024/03/08 05:58:07;;;;;;;47.28;27.00;;;;;;;6.27;100.00;100367.19;5087932;28;20420;-77
2024/03/08 06:00:34;;;;;;;45.83;26.83;;;;;;;6.24;100.00;100332.13;5088182;28;20038;-77
2024/03/08 06:02:59;;;;;;;43.28;27.30;;;;;;;6.54;100.00;100363.06;5088228;28;20042;-76
2024/03/08 06:05:25;;;;;;;41.55;22.15;;;;;;;6.12;100.00;100346.03;5088035;28;20114;-77
2024/03/08 06:07:53;;;;;;;84.55;42.00;;;;;;;6.46;100.00;100365.81;5088061;28;20453;-77
2024/03/08 06:10:19;;;;;;;41.58;24.45;;;;;;;6.55;100.00;100370.03;5081796;28;20041;-77
2024/03/08 06:12:45;;;;;;;37.03;22.80;;;;;;;6.46;100.00;100379.06;5087909;28;20035;-78
2024/03/08 06:15:14;;;;;;;42.53;23.17;;;;;;;6.44;100.00;100374.78;5087556;28;20050;-78
2024/03/08 06:17:39;;;;;;;36.90;21.75;;;;;;;6.30;100.00;100378.25;5087649;28;20039;-78
2024/03/08 06:20:10;;;;;;;40.38;20.98;;;;;;;6.15;100.00;100364.19;5069793;28;20137;-78
2024/03/08 06:22:37;;;;;;;37.63;21.17;;;;;;;6.42;100.00;100382.09;5069550;28;20055;-78
2024/03/08 06:25:03;;;;;;;37.13;23.00;;;;;;;6.60;100.00;100383.56;5087609;28;20028;-78
2024/03/08 06:27:28;;;;;;;35.97;22.48;;;;;;;6.65;100.00;100399.69;5086782;28;20048;-78
2024/03/08 06:29:53;;;;;;;39.97;22.23;;;;;;;6.38;100.00;100354.31;5087631;28;20039;-78
2024/03/08 06:32:19;;;;;;;32.15;20.63;;;;;;;6.49;100.00;100390.13;5087275;28;20477;-78
2024/03/08 06:34:44;;;;;;;39.00;20.60;;;;;;;6.46;100.00;100387.84;5087405;28;20027;-78
2024/03/08 06:37:11;;;;;;;36.78;20.63;;;;;;;6.69;100.00;100398.31;5086642;28;20040;-78
2024/03/08 06:39:37;;;;;;;34.63;20.67;;;;;;;6.80;100.00;100403.16;5076813;28;20606;-77
2024/03/08 06:42:04;;;;;;;36.83;22.30;;;;;;;6.56;100.00;100369.84;5086972;28;20567;-78
2024/03/08 06:44:30;;;;;;;34.30;21.43;;;;;;;6.86;100.00;100408.72;5087794;28;20096;-78
2024/03/08 06:46:55;;;;;;;38.65;22.63;;;;;;;6.69;100.00;100408.94;5087119;28;20440;-77
2024/03/08 06:49:20;;;;;;;40.65;22.50;;;;;;;6.88;100.00;100406.69;5086115;28;20382;-78
2024/03/08 06:51:46;;;;;;;41.92;23.00;;;;;;;6.88;100.00;100401.41;5087218;28;20020;-77
2024/03/08 06:54:12;;;;;;;32.00;20.48;;;;;;;6.89;100.00;100413.66;5086820;28;20034;-78
2024/03/08 06:56:37;;;;;;;32.55;20.23;;;;;;;6.91;100.00;100416.94;5086454;28;20046;-78
2024/03/08 06:59:03;;;;;;;35.22;21.17;;;;;;;6.57;100.00;100402.44;5086530;28;20032;-79
2024/03/08 07:01:31;;;;;;;31.88;19.95;;;;;;;6.61;100.00;100419.63;5086497;28;20135;-78
2024/03/08 07:03:57;;;;;;;;;;;;;;;6.62;100.00;100429.25;5084291;28;20103;-78
2024/03/08 07:06:22;;;;;;;32.88;18.67;;;;;;;6.59;100.00;100424.28;5086553;28;19999;-78
2024/03/08 07:08:48;;;;;;;32.03;19.83;;;;;;;6.61;100.00;100423.09;5086966;28;20028;-78
2024/03/08 07:11:18;;;;;;;34.58;20.02;;;;;;;6.57;100.00;100421.81;5086631;28;20040;-79
2024/03/08 07:13:45;;;;;;;47.08;27.02;;;;;;;6.54;100.00;100410.75;5077249;28;20063;-79
2024/03/08 07:16:11;;;;;;;54.53;32.45;;;;;;;6.80;100.00;100437.63;5075060;28;20035;-79
2024/03/08 07:18:39;;;;;;;43.40;24.80;;;;;;;6.61;100.00;100406.38;5074510;28;20047;-78
2024/03/08 07:21:05;;;;;;;33.88;20.83;;;;;;;6.42;100.00;100408.59;5075476;28;20123;-78
2024/03/08 07:23:46;;;;;;;35.35;20.65;;;;;;;6.58;100.00;100412.06;5086566;28;20572;-77
2024/03/08 07:26:16;;;;;;;39.60;20.77;;;;;;;6.72;100.00;100424.47;5071745;28;20487;-78
2024/03/08 07:28:41;;;;;;;37.67;21.05;;;;;;;6.75;100.00;100434.69;5086239;28;20090;-78
2024/03/08 07:33:50;;;;;;;33.17;19.42;;;;;;;6.72;100.00;100432.44;5086738;28;20092;-78
2024/03/08 07:36:16;;;;;;;36.05;20.70;;;;;;;6.88;100.00;100441.16;5068222;28;20024;-79
2024/03/08 07:38:41;;;;;;;35.63;20.42;;;;;;;6.94;100.00;100435.94;5086982;28;20043;-78
2024/03/08 07:41:06;;;;;;;40.13;21.42;;;;;;;6.82;100.00;100445.38;5086300;28;20030;-78
2024/03/08 07:43:35;;;;;;;42.95;22.02;;;;;;;7.03;100.00;100441.97;5086808;28;20114;-77
2024/03/08 07:46:00;;;;;;;36.40;20.20;;;;;;;6.96;100.00;100446.38;5068150;28;20036;-78
2024/03/08 07:48:26;;;;;;;34.20;20.67;;;;;;;6.87;100.00;100415.69;5061760;28;20032;-78
2024/03/08 07:50:52;;;;;;;36.33;20.70;;;;;;;6.88;100.00;100441.16;5080344;28;20063;-78
2024/03/08 07:53:17;;;;;;;32.92;19.45;;;;;;;6.79;100.00;100437.81;5086140;28;20066;-78
2024/03/08 07:55:44;;;;;;;37.55;20.25;;;;;;;6.81;100.00;100430.50;5086289;28;20024;-78
2024/03/08 07:58:10;;;;;;;34.72;20.27;;;;;;;6.93;100.00;100441.44;5102103;28;20123;-78
2024/03/08 08:00:36;;;;;;;30.92;19.10;;;;;;;6.94;100.00;100453.69;5087928;28;20485;-78
2024/03/08 08:03:02;;;;;;;35.60;19.70;;;;;;;6.69;100.00;100432.78;5090584;28;20099;-78
2024/03/08 08:05:28;;;;;;;38.92;20.65;;;;;;;6.87;100.00;100443.00;5072573;28;20477;-78
2024/03/08 08:07:53;;;;;;;35.35;20.98;;;;;;;7.01;100.00;100434.19;5090229;28;20064;-78
2024/03/08 08:10:21;;;;;;;106.32;53.08;;;;;;;7.34;100.00;100462.91;5072598;28;20043;-78
2024/03/08 08:12:48;;;;;;;34.83;20.45;;;;;;;7.23;100.00;100464.25;5091022;28;20071;-78
2024/03/08 08:15:14;;;;;;;35.78;22.52;;;;;;;7.06;100.00;100443.44;5089825;28;20105;-78
2024/03/08 08:17:43;;;;;;;32.05;19.40;;;;;;;7.22;100.00;100457.28;5090780;28;20247;-78
2024/03/08 08:20:12;;;;;;;36.90;21.20;;;;;;;7.40;100.00;100462.16;5091424;28;20036;-78
2024/03/08 08:22:41;;;;;;;34.20;20.10;;;;;;;7.08;100.00;100466.09;5101632;28;20073;-78
2024/03/08 08:25:07;;;;;;;37.58;20.75;;;;;;;6.95;100.00;100444.72;5103872;28;20028;-79
2024/03/08 08:27:33;;;;;;;34.15;20.08;;;;;;;6.96;100.00;100470.22;5102876;28;20185;-77
2024/03/08 08:29:59;;;;;;;33.88;20.17;;;;;;;7.13;100.00;100471.69;5094321;28;20078;-78
2024/03/08 08:32:24;;;;;;;32.40;19.17;;;;;;;7.16;100.00;100473.94;5081855;28;20035;-78
2024/03/08 08:34:50;;;;;;;33.38;19.98;;;;;;;7.37;100.00;100459.88;5091013;28;20016;-78
2024/03/08 08:37:16;;;;;;;36.53;21.67;;;;;;;7.53;100.00;100476.59;5084019;28;20058;-78
2024/03/08 08:39:42;;;;;;;33.30;21.00;;;;;;;7.40;100.00;100477.28;5081107;28;20064;-86
2024/03/08 08:42:09;;;;;;;39.85;19.55;;;;;;;7.42;100.00;100475.25;5074849;28;20032;-79
2024/03/08 08:44:37;;;;;;;33.92;19.23;;;;;;;7.07;100.00;100480.38;5064351;28;20020;-78
2024/03/08 08:47:03;;;;;;;33.97;20.55;;;;;;;7.26;100.00;100473.66;5096617;28;20104;-78
2024/03/08 08:49:30;;;;;;;40.22;24.02;;;;;;;7.31;100.00;100459.81;5096547;28;20028;-79
2024/03/08 08:51:58;;;;;;;35.30;19.27;;;;;;;7.44;100.00;100486.50;5095637;28;20047;-78
2024/03/08 08:54:24;;;;;;;40.83;25.63;;;;;;;7.42;100.00;100472.59;5095809;28;20024;-78
2024/03/08 08:56:50;;;;;;;35.33;19.17;;;;;;;7.19;100.00;100462.97;5092232;28;20032;-78
2024/03/08 08:59:19;;;;;;;36.13;20.10;;;;;;;7.56;100.00;100489.47;5093692;28;20035;-78
2024/03/08 09:01:48;;;;;;;31.98;19.80;;;;;;;7.56;100.00;100478.84;5092744;28;20028;-78
2024/03/08 09:04:13;;;;;;;31.02;18.73;;;;;;;7.35;100.00;100483.13;5091723;28;20081;-78
2024/03/08 09:06:41;;;;;;;31.25;18.05;;;;;;;7.64;100.00;100478.72;5089546;28;20027;-78
2024/03/08 09:09:09;;;;;;;32.80;17.90;;;;;;;7.31;100.00;100476.53;5091123;28;20032;-79
2024/03/08 09:11:34;;;;;;;32.38;17.80;;;;;;;7.07;100.00;100451.19;5071775;28;20040;-78
2024/03/08 09:14:01;;;;;;;32.00;18.73;;;;;;;7.36;100.00;100468.06;5090284;28;20822;-79
2024/03/08 09:16:27;;;;;;;28.83;17.30;;;;;;;7.44;100.00;100466.09;5089317;28;20028;-77
2024/03/08 09:18:52;;;;;;;30.17;19.05;;;;;;;7.42;100.00;100467.28;5088987;28;20020;-79
2024/03/08 09:21:18;;;;;;;30.15;18.08;;;;;;;7.75;100.00;100482.72;5088990;28;20024;-78
2024/03/08 09:23:44;;;;;;;32.20;18.98;;;;;;;8.09;100.00;100475.84;5089446;28;20047;-79
2024/03/08 09:26:12;;;;;;;32.47;19.17;;;;;;;8.05;100.00;100460.31;5078826;28;20115;-78
2024/03/08 09:28:38;;;;;;;27.08;16.15;;;;;;;8.21;100.00;100469.00;5077690;28;20044;-78
2024/03/08 09:31:05;;;;;;;31.08;18.50;;;;;;;8.21;100.00;100461.03;5088100;28;20032;-79
2024/03/08 09:33:31;;;;;;;28.90;17.20;;;;;;;8.26;100.00;100485.19;5088136;28;20063;-79
2024/03/08 09:35:59;;;;;;;27.48;17.63;;;;;;;8.47;100.00;100486.19;5087959;28;20100;-78
2024/03/08 09:38:25;;;;;;;27.38;17.55;;;;;;;8.48;100.00;100461.22;5088048;28;20036;-77
2024/03/08 09:40:53;;;;;;;36.90;25.23;;;;;;;8.66;100.00;100480.16;5070535;28;20028;-78
2024/03/08 09:43:18;;;;;;;29.52;16.67;;;;;;;8.21;100.00;100456.56;5089035;28;20036;-78
2024/03/08 09:45:49;;;;;;;31.13;17.13;;;;;;;8.53;100.00;100453.50;5070684;28;20031;-79
2024/03/08 09:48:16;;;;;;;30.60;17.45;;;;;;;8.53;100.00;100449.00;5088819;28;20036;-78
2024/03/08 09:50:42;;;;;;;25.67;15.13;;;;;;;8.57;100.00;100486.66;5069589;28;20027;-78
2024/03/08 09:53:09;;;;;;;21.20;13.95;;;;;;;8.39;100.00;100474.63;5087355;28;20059;-78
2024/03/08 09:55:42;;;;;;;24.92;16.65;;;;;;;8.69;100.00;100447.06;5069104;28;20492;-79
2024/03/08 10:00:45;;;;;;;28.52;17.90;;;;;;;8.75;100.00;100467.53;5087224;28;20020;-78
2024/03/08 10:03:10;;;;;;;29.55;18.90;;;;;;;8.70;100.00;100465.44;5068713;28;20039;-77
2024/03/08 10:05:36;;;;;;;24.05;15.50;;;;;;;8.45;100.00;100454.47;5087105;28;20031;-78
2024/03/08 10:08:02;;;;;;;25.02;16.10;;;;;;;8.57;100.00;100460.88;5088164;28;20036;-78
2024/03/08 10:10:28;;;;;;;25.83;16.38;;;;;;;8.68;100.00;100467.47;5088335;28;20028;-78
2024/03/08 10:12:55;;;;;;;28.58;18.23;;;;;;;8.50;100.00;100469.84;5088297;28;20568;-79
2024/03/08 10:15:20;;;;;;;29.15;19.13;;;;;;;8.79;100.00;100461.63;5070072;28;20028;-79
2024/03/08 10:17:46;;;;;;;30.17;19.42;;;;;;;8.95;100.00;100446.31;5088194;28;20031;-78
2024/03/08 10:20:17;;;;;;;26.95;17.30;;;;;;;9.07;100.00;100474.00;5087914;28;20122;-78
2024/03/08 10:22:43;;;;;;;29.67;17.65;;;;;;;8.92;100.00;100468.84;5087969;28;20032;-78
2024/03/08 10:25:10;;;;;;;28.10;16.67;;;;;;;8.68;100.00;100475.47;5087974;28;20024;-78
2024/03/08 10:27:36;;;;;;;28.90;17.08;;;;;;;8.25;100.00;100449.84;5087371;28;20487;-77
2024/03/08 10:30:02;;;;;;;25.30;16.23;;;;;;;8.24;100.00;100444.72;5087929;28;20025;-79
2024/03/08 10:32:28;;;;;;;25.20;16.88;;;;;;;8.52;100.00;100444.72;5088260;28;20119;-78
2024/03/08 10:34:53;;;;;;;29.40;17.35;;;;;;;8.29;100.00;100431.66;5069339;28;20463;-79
2024/03/08 10:37:25;;;;;;;25.30;16.23;;;;;;;9.00;100.00;100466.00;5087277;28;20415;-79
2024/03/08 10:40:15;;;;;;;21.42;14.40;;;;;;;9.16;100.00;100464.84;5087497;28;20020;-78
2024/03/08 10:42:57;;;;;;;26.58;16.85;;;;;;;9.21;100.00;100433.16;5087451;28;20035;-78
2024/03/08 10:45:36;;;;;;;25.90;15.27;;;;;;;9.47;100.00;100433.38;5087518;28;20047;-78
2024/03/08 10:48:15;;;;;;;21.52;13.82;;;;;;;9.40;100.00;100465.34;5087583;28;20096;-78
2024/03/08 10:50:45;;;;;;;23.40;14.57;;;;;;;9.16;100.00;100448.06;5087294;28;20028;-78
2024/03/08 10:53:11;;;;;;;21.92;12.82;;;;;;;9.28;100.00;100445.66;5087365;28;20089;-78
2024/03/08 10:55:39;;;;;;;23.73;14.88;;;;;;;9.22;100.00;100441.94;5087089;28;20020;-78
2024/03/08 10:58:05;;;;;;;23.95;15.02;;;;;;;9.18;100.00;100452.16;5069217;28;20028;-77
2024/03/08 11:00:32;;;;;;;22.65;13.15;;;;;;;8.80;100.00;100454.47;5087054;28;20048;-78
2024/03/08 11:02:57;;;;;;;21.25;13.30;;;;;;;8.54;100.00;100415.25;5069044;28;20036;-78
2024/03/08 11:05:40;;;;;;;21.50;12.43;;;;;;;8.91;100.00;100455.72;5066356;28;20028;-78
2024/03/08 11:08:18;;;;;;;22.65;14.80;;;;;;;8.95;100.00;100455.16;5076591;28;20059;-79
2024/03/08 11:10:55;;;;;;;23.42;13.50;;;;;;;8.82;100.00;100436.47;5081093;28;20080;-78
2024/03/08 11:13:39;;;;;;;20.50;12.63;;;;;;;9.01;100.00;100440.22;5080745;28;20056;-77